Have a Safe July 4th! 

Flight Track Log - Related Links

Times and Time Zones

All times are in EDT time to prevent confusion due to time zone crossing. See the CTL22 flight status page for this flight to view local times or setup timezone preferences in your user account.

Time Position Orientation Groundspeed Altitude Reporting Facility
EDT Latitude Longitude Course Direction KTS MPH feet Rate Location/Type
Mon 10:06:38 PM 42.5131 -84.2856 294° West 157 181 6,000  Level Chicago Center
Mon 10:07:39 PM 42.5306 -84.3400 294° West 158 182 6,000  Level Chicago Center
Mon 10:08:41 PM 42.5489 -84.3931 295° West 157 181 6,000 -244 Level Chicago Center
Mon 10:09:42 PM 42.5656 -84.4494 292° West 160 184 5,500 -537 Descending Chicago Center
Mon 10:10:44 PM 42.5833 -84.5106 292° West 171 197 4,900 -585 Descending Chicago Center
Mon 10:11:45 PM 42.6019 -84.5711 293° West 175 201 4,300 -439 Descending Chicago Center
Mon 10:12:47 PM 42.6194 -84.6297 292° West 171 197 4,000 -146 Descending Chicago Center
Mon 10:13:48 PM 42.6375 -84.6831 298° West 161 185 4,000  Level Chicago Center
Mon 10:14:50 PM 42.6558 -84.7447 292° West 149 171 4,000  Level Chicago Center
Mon 10:15:52 PM 42.6711 -84.7950 292° West 147 169 4,000  Level Chicago Center
Mon 10:16:53 PM 42.6875 -84.8469 293° West 149 171 4,000 49 Level Chicago Center
Mon 10:17:55 PM 42.7033 -84.9025 291° West 154 177 4,100  Climbing Chicago Center
Mon 10:18:56 PM 42.7169 -84.9561 289° West 153 176 4,000 -49 Descending Chicago Center
Mon 10:19:58 PM 42.7347 -85.0072 295° West 151 174 4,000 -49 Level Chicago Center
Mon 10:20:59 PM 42.7508 -85.0625 292° West 155 178 3,900  Descending Chicago Center
Mon 10:22:01 PM 42.7681 -85.1142 294° West 153 176 4,000 -49 Climbing Chicago Center
Mon 10:23:02 PM 42.7914 -85.1767 297° West 154 177 3,800 -195 Descending Chicago Center
Mon 10:24:04 PM 42.8100 -85.2311 295° West 158 182 3,600 -341 Descending Chicago Center
Mon 10:25:05 PM 42.8289 -85.2869 295° West 162 186 3,100 -488 Descending Chicago Center
Mon 10:26:07 PM 42.8458 -85.3478 291° West 167 192 2,600 -488 Descending Chicago Center
Mon 10:27:08 PM 42.8617 -85.4078 290° West 169 194 2,100 -537 Descending Chicago Center
Mon 10:28:10 PM 42.8753 -85.4653 288° West 165 190 1,500 -532 Descending Chicago Center
Mon 10:29:12 PM 42.8836 -85.5239 281° West 157 181 1,000 -484 Descending Chicago Center

Login

Don't have an account? Register now (free) for customized features, flight alerts, and more!